Aérodrome :
LOGIN :

S'inscrire | Disclaimer

   EN    FR    IT 

 










Légende :    VFR   VFR Marginal   IFR   IFR Intensif   IFR Très Intensif
Visi : 
Plafond : 
>= 8 km
>= 3000ft
5 à 8 km
1000 à 3000 ft
1500m à 5 km
500 à 1000 ft
800 à 1500m
200 à 500 ft
< 800m
< 200 ft
Symboles :   Orages  Brouillard  Fortes neiges  Fortes précipitations  Vent > 20 kt
SIGMETs :   Divers  Orages  Givrage  Turbulence  Onde Orograph.  Cendres Volcan.







- Altitude de l'aérodrome : 408 ft
- Code IATA : SOB


LHSM - Sarmellek Balaton

DERNIER METAR :
  • 231545Z 33023G36KT 2000 RA BKN005 OVC015 09/07 Q1011 BECMG 3000 RA

METARs EXPIRÉS :
  • 231515Z 34021KT 2000 RA BKN005 OVC015 09/07 Q1011 BECMG 3000 RA
  • 231445Z 34021KT 2000 RA BKN005 OVC015 09/07 Q1011 BECMG 3000 RA
  • 231415Z 34021G32KT 1500 +RA BKN005 OVC015 09/07 Q1010 BECMG 3000 RA
  • 231345Z 34018KT 1500 +RA BKN005 OVC015 09/08 Q1010 NOSIG

TAF AMD TAF LHSM
Valide du 23 à 14h jusqu'au 23 à 21h UTC


231400Z 2314/2321 34022G36KT 8000 -RA SCT012 OVC030
TEMPO 2314/2318 1000 +RA BR BKN005 OVC015
Pas de NOTAMs connus pour ce terrain.



MET'MAP, la Météo Aéronautique d'un coup d'oeil ! - Copyright ORBIFLY Décembre 2007 - Disclaimer

ORBIFLY MET'MAP TEAM :

Programmation & Développement : Alexandra Zaïnal
Conception & Développement : Baudouin d'Aumeries
Co-Programmation & Développement : Marc-Olivier Méhu
Soutien technique & logistique : Manuel Goepfert

Contact : metmap@orbifly.com




SOURCES & CREDITS :

   NOAA